sensor_id;sensor_type;location;lat;lon;timestamp;P1;durP1;ratioP1;P2;durP2;ratioP2
17494;SDS011;8864;51.970;4.614;2022-12-29T00:01:32;1.70;;;0.57;;
17494;SDS011;8864;51.970;4.614;2022-12-29T00:04:04;0.95;;;0.65;;
17494;SDS011;8864;51.970;4.614;2022-12-29T00:06:34;1.95;;;0.60;;
17494;SDS011;8864;51.970;4.614;2022-12-29T00:09:01;1.35;;;0.70;;
17494;SDS011;8864;51.970;4.614;2022-12-29T00:11:28;2.53;;;0.68;;
17494;SDS011;8864;51.970;4.614;2022-12-29T00:13:57;2.00;;;0.77;;
17494;SDS011;8864;51.970;4.614;2022-12-29T00:16:43;3.05;;;0.63;;
17494;SDS011;8864;51.970;4.614;2022-12-29T00:19:15;0.85;;;0.63;;
17494;SDS011;8864;51.970;4.614;2022-12-29T00:22:00;2.13;;;0.77;;
17494;SDS011;8864;51.970;4.614;2022-12-29T00:24:57;0.85;;;0.63;;
17494;SDS011;8864;51.970;4.614;2022-12-29T00:27:42;1.73;;;0.60;;
17494;SDS011;8864;51.970;4.614;2022-12-29T00:30:30;2.25;;;0.90;;
17494;SDS011;8864;51.970;4.614;2022-12-29T00:33:17;1.83;;;0.60;;
17494;SDS011;8864;51.970;4.614;2022-12-29T00:36:06;1.10;;;0.70;;
17494;SDS011;8864;51.970;4.614;2022-12-29T00:38:41;3.03;;;0.70;;
17494;SDS011;8864;51.970;4.614;2022-12-29T00:41:29;1.65;;;0.45;;
17494;SDS011;8864;51.970;4.614;2022-12-29T00:44:13;0.95;;;0.55;;
17494;SDS011;8864;51.970;4.614;2022-12-29T00:46:42;1.77;;;0.70;;
17494;SDS011;8864;51.970;4.614;2022-12-29T00:49:10;2.15;;;0.68;;
17494;SDS011;8864;51.970;4.614;2022-12-29T00:52:00;0.93;;;0.60;;
17494;SDS011;8864;51.970;4.614;2022-12-29T00:54:41;2.58;;;0.60;;
17494;SDS011;8864;51.970;4.614;2022-12-29T00:57:20;2.13;;;0.60;;
17494;SDS011;8864;51.970;4.614;2022-12-29T00:59:50;1.50;;;0.70;;
17494;SDS011;8864;51.970;4.614;2022-12-29T01:02:20;1.75;;;0.70;;
17494;SDS011;8864;51.970;4.614;2022-12-29T01:04:48;1.45;;;0.47;;
17494;SDS011;8864;51.970;4.614;2022-12-29T01:07:21;1.17;;;0.70;;
17494;SDS011;8864;51.970;4.614;2022-12-29T01:09:48;1.83;;;0.60;;
17494;SDS011;8864;51.970;4.614;2022-12-29T01:12:34;0.95;;;0.50;;
17494;SDS011;8864;51.970;4.614;2022-12-29T01:15:08;1.10;;;0.80;;
17494;SDS011;8864;51.970;4.614;2022-12-29T01:17:41;0.60;;;0.50;;
17494;SDS011;8864;51.970;4.614;2022-12-29T01:20:10;1.05;;;0.50;;
17494;SDS011;8864;51.970;4.614;2022-12-29T01:22:38;0.60;;;0.50;;
17494;SDS011;8864;51.970;4.614;2022-12-29T01:25:09;0.70;;;0.60;;
17494;SDS011;8864;51.970;4.614;2022-12-29T01:27:36;0.90;;;0.70;;
17494;SDS011;8864;51.970;4.614;2022-12-29T01:30:05;0.60;;;0.60;;
17494;SDS011;8864;51.970;4.614;2022-12-29T01:32:37;2.05;;;0.77;;
17494;SDS011;8864;51.970;4.614;2022-12-29T01:35:08;1.63;;;0.70;;
17494;SDS011;8864;51.970;4.614;2022-12-29T01:37:41;0.90;;;0.57;;
17494;SDS011;8864;51.970;4.614;2022-12-29T01:40:11;1.83;;;0.70;;
17494;SDS011;8864;51.970;4.614;2022-12-29T01:42:40;2.03;;;0.73;;
17494;SDS011;8864;51.970;4.614;2022-12-29T01:45:14;1.13;;;0.57;;
17494;SDS011;8864;51.970;4.614;2022-12-29T01:47:45;1.27;;;0.57;;
17494;SDS011;8864;51.970;4.614;2022-12-29T01:50:29;0.80;;;0.50;;
17494;SDS011;8864;51.970;4.614;2022-12-29T01:53:03;0.95;;;0.50;;
17494;SDS011;8864;51.970;4.614;2022-12-29T01:55:44;0.70;;;0.57;;
17494;SDS011;8864;51.970;4.614;2022-12-29T01:58:16;3.72;;;0.80;;
17494;SDS011;8864;51.970;4.614;2022-12-29T02:00:49;0.68;;;0.50;;
17494;SDS011;8864;51.970;4.614;2022-12-29T02:03:16;0.50;;;0.50;;
17494;SDS011;8864;51.970;4.614;2022-12-29T02:06:01;0.85;;;0.60;;
17494;SDS011;8864;51.970;4.614;2022-12-29T02:08:35;1.08;;;0.55;;
17494;SDS011;8864;51.970;4.614;2022-12-29T02:11:08;1.60;;;0.50;;
17494;SDS011;8864;51.970;4.614;2022-12-29T02:13:38;1.58;;;0.57;;
17494;SDS011;8864;51.970;4.614;2022-12-29T02:16:11;1.80;;;0.50;;
17494;SDS011;8864;51.970;4.614;2022-12-29T02:18:56;0.55;;;0.50;;
17494;SDS011;8864;51.970;4.614;2022-12-29T02:27:50;1.52;;;0.50;;
17494;SDS011;8864;51.970;4.614;2022-12-29T02:30:33;3.00;;;0.82;;
17494;SDS011;8864;51.970;4.614;2022-12-29T02:33:08;2.13;;;0.50;;
17494;SDS011;8864;51.970;4.614;2022-12-29T02:35:50;1.48;;;0.57;;
17494;SDS011;8864;51.970;4.614;2022-12-29T02:38:33;2.15;;;0.70;;
17494;SDS011;8864;51.970;4.614;2022-12-29T02:41:19;2.45;;;0.90;;
17494;SDS011;8864;51.970;4.614;2022-12-29T02:43:54;2.30;;;0.73;;
17494;SDS011;8864;51.970;4.614;2022-12-29T02:46:28;2.05;;;0.70;;
17494;SDS011;8864;51.970;4.614;2022-12-29T02:49:05;2.08;;;0.80;;
17494;SDS011;8864;51.970;4.614;2022-12-29T02:51:49;1.33;;;0.70;;
17494;SDS011;8864;51.970;4.614;2022-12-29T02:54:23;2.25;;;0.60;;
17494;SDS011;8864;51.970;4.614;2022-12-29T02:57:08;4.85;;;0.82;;
17494;SDS011;8864;51.970;4.614;2022-12-29T02:59:38;1.75;;;0.73;;
17494;SDS011;8864;51.970;4.614;2022-12-29T03:02:26;4.22;;;0.70;;
17494;SDS011;8864;51.970;4.614;2022-12-29T03:05:15;1.38;;;0.60;;
17494;SDS011;8864;51.970;4.614;2022-12-29T03:07:51;3.10;;;0.82;;
17494;SDS011;8864;51.970;4.614;2022-12-29T03:10:29;5.70;;;1.05;;
17494;SDS011;8864;51.970;4.614;2022-12-29T03:13:04;1.38;;;0.70;;
17494;SDS011;8864;51.970;4.614;2022-12-29T03:16:02;2.35;;;0.70;;
17494;SDS011;8864;51.970;4.614;2022-12-29T03:18:44;3.38;;;0.82;;
17494;SDS011;8864;51.970;4.614;2022-12-29T03:21:17;3.03;;;0.80;;
17494;SDS011;8864;51.970;4.614;2022-12-29T03:24:16;2.80;;;0.98;;
17494;SDS011;8864;51.970;4.614;2022-12-29T03:26:48;2.90;;;1.10;;
17494;SDS011;8864;51.970;4.614;2022-12-29T03:29:17;4.22;;;0.80;;
17494;SDS011;8864;51.970;4.614;2022-12-29T03:31:46;4.75;;;0.90;;
17494;SDS011;8864;51.970;4.614;2022-12-29T03:34:29;4.78;;;1.15;;
17494;SDS011;8864;51.970;4.614;2022-12-29T03:37:06;1.88;;;0.50;;
17494;SDS011;8864;51.970;4.614;2022-12-29T03:39:45;3.03;;;0.95;;
17494;SDS011;8864;51.970;4.614;2022-12-29T03:42:20;4.03;;;0.60;;
17494;SDS011;8864;51.970;4.614;2022-12-29T03:44:59;1.77;;;0.70;;
17494;SDS011;8864;51.970;4.614;2022-12-29T03:47:29;3.03;;;0.75;;
17494;SDS011;8864;51.970;4.614;2022-12-29T03:50:02;3.55;;;1.10;;
17494;SDS011;8864;51.970;4.614;2022-12-29T03:52:33;2.70;;;0.70;;
17494;SDS011;8864;51.970;4.614;2022-12-29T03:55:05;2.40;;;0.60;;
17494;SDS011;8864;51.970;4.614;2022-12-29T03:57:46;2.67;;;0.80;;
17494;SDS011;8864;51.970;4.614;2022-12-29T04:00:15;3.40;;;0.80;;
17494;SDS011;8864;51.970;4.614;2022-12-29T04:02:49;2.25;;;0.70;;
17494;SDS011;8864;51.970;4.614;2022-12-29T04:05:20;3.05;;;0.80;;
17494;SDS011;8864;51.970;4.614;2022-12-29T04:07:50;6.35;;;0.90;;
17494;SDS011;8864;51.970;4.614;2022-12-29T04:10:17;2.33;;;0.70;;
17494;SDS011;8864;51.970;4.614;2022-12-29T04:12:44;2.70;;;0.70;;
17494;SDS011;8864;51.970;4.614;2022-12-29T04:15:12;2.53;;;0.80;;
17494;SDS011;8864;51.970;4.614;2022-12-29T04:17:40;2.47;;;0.93;;
17494;SDS011;8864;51.970;4.614;2022-12-29T04:20:09;6.78;;;0.90;;
17494;SDS011;8864;51.970;4.614;2022-12-29T04:23:06;2.53;;;0.98;;
17494;SDS011;8864;51.970;4.614;2022-12-29T04:25:44;5.05;;;1.05;;
17494;SDS011;8864;51.970;4.614;2022-12-29T04:28:16;4.03;;;1.25;;
17494;SDS011;8864;51.970;4.614;2022-12-29T04:30:43;3.28;;;1.02;;
17494;SDS011;8864;51.970;4.614;2022-12-29T04:33:15;1.98;;;0.88;;
17494;SDS011;8864;51.970;4.614;2022-12-29T04:35:50;4.78;;;1.00;;
17494;SDS011;8864;51.970;4.614;2022-12-29T04:38:32;3.42;;;0.88;;
17494;SDS011;8864;51.970;4.614;2022-12-29T04:41:01;5.10;;;1.05;;
17494;SDS011;8864;51.970;4.614;2022-12-29T04:43:29;7.38;;;1.02;;
17494;SDS011;8864;51.970;4.614;2022-12-29T04:45:57;5.75;;;1.10;;
17494;SDS011;8864;51.970;4.614;2022-12-29T04:48:27;5.40;;;1.10;;
17494;SDS011;8864;51.970;4.614;2022-12-29T04:51:01;3.95;;;0.90;;
17494;SDS011;8864;51.970;4.614;2022-12-29T04:53:30;4.45;;;0.90;;
17494;SDS011;8864;51.970;4.614;2022-12-29T04:55:58;2.67;;;0.98;;
17494;SDS011;8864;51.970;4.614;2022-12-29T04:58:29;5.10;;;1.13;;
17494;SDS011;8864;51.970;4.614;2022-12-29T05:00:59;10.57;;;1.30;;
17494;SDS011;8864;51.970;4.614;2022-12-29T05:03:26;5.97;;;1.10;;
17494;SDS011;8864;51.970;4.614;2022-12-29T05:05:53;5.22;;;1.00;;
17494;SDS011;8864;51.970;4.614;2022-12-29T05:08:21;6.63;;;1.10;;
17494;SDS011;8864;51.970;4.614;2022-12-29T05:10:51;5.18;;;1.02;;
17494;SDS011;8864;51.970;4.614;2022-12-29T05:13:23;4.18;;;1.00;;
17494;SDS011;8864;51.970;4.614;2022-12-29T05:15:53;3.53;;;0.90;;
17494;SDS011;8864;51.970;4.614;2022-12-29T05:18:27;6.35;;;1.23;;
17494;SDS011;8864;51.970;4.614;2022-12-29T05:21:00;5.60;;;0.98;;
17494;SDS011;8864;51.970;4.614;2022-12-29T05:23:27;4.30;;;0.90;;
17494;SDS011;8864;51.970;4.614;2022-12-29T05:26:00;4.97;;;1.23;;
17494;SDS011;8864;51.970;4.614;2022-12-29T05:28:31;4.47;;;1.00;;
17494;SDS011;8864;51.970;4.614;2022-12-29T05:30:58;6.90;;;1.23;;
17494;SDS011;8864;51.970;4.614;2022-12-29T05:33:30;4.85;;;1.40;;
17494;SDS011;8864;51.970;4.614;2022-12-29T05:36:03;4.35;;;1.10;;
17494;SDS011;8864;51.970;4.614;2022-12-29T05:38:31;3.90;;;0.90;;
17494;SDS011;8864;51.970;4.614;2022-12-29T05:41:00;5.30;;;1.10;;
17494;SDS011;8864;51.970;4.614;2022-12-29T05:43:29;3.85;;;1.05;;
17494;SDS011;8864;51.970;4.614;2022-12-29T05:46:04;18.38;;;1.73;;
17494;SDS011;8864;51.970;4.614;2022-12-29T05:48:34;4.93;;;1.10;;
17494;SDS011;8864;51.970;4.614;2022-12-29T05:51:07;5.07;;;1.15;;
17494;SDS011;8864;51.970;4.614;2022-12-29T05:53:34;8.55;;;1.50;;
17494;SDS011;8864;51.970;4.614;2022-12-29T05:56:05;7.18;;;1.02;;
17494;SDS011;8864;51.970;4.614;2022-12-29T05:58:34;7.97;;;1.10;;
17494;SDS011;8864;51.970;4.614;2022-12-29T06:01:06;5.80;;;1.08;;
17494;SDS011;8864;51.970;4.614;2022-12-29T06:03:35;5.78;;;1.10;;
17494;SDS011;8864;51.970;4.614;2022-12-29T06:06:07;5.53;;;1.30;;
17494;SDS011;8864;51.970;4.614;2022-12-29T06:08:36;5.10;;;1.23;;
17494;SDS011;8864;51.970;4.614;2022-12-29T06:11:06;6.70;;;1.40;;
17494;SDS011;8864;51.970;4.614;2022-12-29T06:13:37;6.32;;;1.27;;
17494;SDS011;8864;51.970;4.614;2022-12-29T06:16:17;7.47;;;1.15;;
17494;SDS011;8864;51.970;4.614;2022-12-29T06:18:46;5.30;;;1.10;;
17494;SDS011;8864;51.970;4.614;2022-12-29T06:21:13;6.72;;;1.67;;
17494;SDS011;8864;51.970;4.614;2022-12-29T06:23:40;6.45;;;1.40;;
17494;SDS011;8864;51.970;4.614;2022-12-29T06:26:12;5.57;;;1.38;;
17494;SDS011;8864;51.970;4.614;2022-12-29T06:28:49;8.50;;;1.45;;
17494;SDS011;8864;51.970;4.614;2022-12-29T06:31:16;5.82;;;1.40;;
17494;SDS011;8864;51.970;4.614;2022-12-29T06:33:47;4.47;;;1.10;;
17494;SDS011;8864;51.970;4.614;2022-12-29T06:36:17;7.82;;;1.20;;
17494;SDS011;8864;51.970;4.614;2022-12-29T06:38:56;8.27;;;1.25;;
17494;SDS011;8864;51.970;4.614;2022-12-29T06:44:10;8.75;;;1.55;;
17494;SDS011;8864;51.970;4.614;2022-12-29T06:46:42;9.00;;;1.73;;
17494;SDS011;8864;51.970;4.614;2022-12-29T06:49:22;7.60;;;1.50;;
17494;SDS011;8864;51.970;4.614;2022-12-29T06:51:50;5.32;;;1.23;;
17494;SDS011;8864;51.970;4.614;2022-12-29T06:54:20;6.57;;;1.23;;
17494;SDS011;8864;51.970;4.614;2022-12-29T06:56:52;9.60;;;1.50;;
17494;SDS011;8864;51.970;4.614;2022-12-29T06:59:21;5.82;;;1.38;;
17494;SDS011;8864;51.970;4.614;2022-12-29T07:01:51;8.65;;;1.42;;
17494;SDS011;8864;51.970;4.614;2022-12-29T07:04:21;6.68;;;1.50;;
17494;SDS011;8864;51.970;4.614;2022-12-29T07:06:53;5.45;;;1.40;;
17494;SDS011;8864;51.970;4.614;2022-12-29T07:09:21;7.32;;;1.58;;
17494;SDS011;8864;51.970;4.614;2022-12-29T07:11:48;4.20;;;1.20;;
17494;SDS011;8864;51.970;4.614;2022-12-29T07:14:17;7.53;;;1.10;;
17494;SDS011;8864;51.970;4.614;2022-12-29T07:16:45;7.05;;;1.33;;
17494;SDS011;8864;51.970;4.614;2022-12-29T07:19:14;3.75;;;1.02;;
17494;SDS011;8864;51.970;4.614;2022-12-29T07:21:46;10.57;;;1.42;;
17494;SDS011;8864;51.970;4.614;2022-12-29T07:24:13;6.88;;;1.55;;
17494;SDS011;8864;51.970;4.614;2022-12-29T07:26:42;6.20;;;1.40;;
17494;SDS011;8864;51.970;4.614;2022-12-29T07:29:09;7.95;;;1.42;;
17494;SDS011;8864;51.970;4.614;2022-12-29T07:31:38;4.47;;;1.20;;
17494;SDS011;8864;51.970;4.614;2022-12-29T07:34:07;3.92;;;1.23;;
17494;SDS011;8864;51.970;4.614;2022-12-29T07:36:39;4.78;;;1.20;;
17494;SDS011;8864;51.970;4.614;2022-12-29T07:39:10;5.95;;;1.00;;
17494;SDS011;8864;51.970;4.614;2022-12-29T07:41:38;4.75;;;1.23;;
17494;SDS011;8864;51.970;4.614;2022-12-29T07:44:05;7.60;;;1.40;;
17494;SDS011;8864;51.970;4.614;2022-12-29T07:46:39;9.98;;;1.40;;
17494;SDS011;8864;51.970;4.614;2022-12-29T07:49:12;8.07;;;1.33;;
17494;SDS011;8864;51.970;4.614;2022-12-29T07:51:40;4.85;;;1.10;;
17494;SDS011;8864;51.970;4.614;2022-12-29T07:54:10;5.20;;;1.30;;
17494;SDS011;8864;51.970;4.614;2022-12-29T07:56:45;6.60;;;1.25;;
17494;SDS011;8864;51.970;4.614;2022-12-29T07:59:16;8.13;;;1.25;;
17494;SDS011;8864;51.970;4.614;2022-12-29T08:01:47;4.95;;;1.40;;
17494;SDS011;8864;51.970;4.614;2022-12-29T08:04:14;4.80;;;1.20;;
17494;SDS011;8864;51.970;4.614;2022-12-29T08:06:41;7.38;;;1.40;;
17494;SDS011;8864;51.970;4.614;2022-12-29T08:09:13;5.93;;;1.30;;
17494;SDS011;8864;51.970;4.614;2022-12-29T08:11:45;7.28;;;1.73;;
17494;SDS011;8864;51.970;4.614;2022-12-29T08:14:12;4.70;;;1.20;;
17494;SDS011;8864;51.970;4.614;2022-12-29T08:16:39;6.68;;;1.40;;
17494;SDS011;8864;51.970;4.614;2022-12-29T08:19:11;8.38;;;1.35;;
17494;SDS011;8864;51.970;4.614;2022-12-29T08:21:44;6.68;;;1.40;;
17494;SDS011;8864;51.970;4.614;2022-12-29T08:24:13;8.18;;;1.50;;
17494;SDS011;8864;51.970;4.614;2022-12-29T08:26:59;5.90;;;1.67;;
17494;SDS011;8864;51.970;4.614;2022-12-29T08:29:33;6.35;;;1.10;;
17494;SDS011;8864;51.970;4.614;2022-12-29T08:32:00;10.77;;;1.48;;
17494;SDS011;8864;51.970;4.614;2022-12-29T08:34:29;7.55;;;1.60;;
17494;SDS011;8864;51.970;4.614;2022-12-29T08:37:08;9.60;;;1.52;;
17494;SDS011;8864;51.970;4.614;2022-12-29T08:39:44;6.18;;;1.27;;
17494;SDS011;8864;51.970;4.614;2022-12-29T08:42:11;6.55;;;1.60;;
17494;SDS011;8864;51.970;4.614;2022-12-29T08:44:46;9.43;;;1.30;;
17494;SDS011;8864;51.970;4.614;2022-12-29T08:47:14;9.73;;;1.73;;
17494;SDS011;8864;51.970;4.614;2022-12-29T08:49:46;14.00;;;2.17;;
17494;SDS011;8864;51.970;4.614;2022-12-29T08:52:13;7.50;;;1.42;;
17494;SDS011;8864;51.970;4.614;2022-12-29T08:54:44;6.68;;;1.45;;
17494;SDS011;8864;51.970;4.614;2022-12-29T08:57:13;14.18;;;2.63;;
17494;SDS011;8864;51.970;4.614;2022-12-29T08:59:41;10.20;;;2.13;;
17494;SDS011;8864;51.970;4.614;2022-12-29T09:02:09;15.48;;;2.20;;
17494;SDS011;8864;51.970;4.614;2022-12-29T09:04:43;16.45;;;2.70;;
17494;SDS011;8864;51.970;4.614;2022-12-29T09:07:12;13.88;;;2.95;;
17494;SDS011;8864;51.970;4.614;2022-12-29T09:09:42;21.08;;;3.03;;
17494;SDS011;8864;51.970;4.614;2022-12-29T09:12:11;21.73;;;3.42;;
17494;SDS011;8864;51.970;4.614;2022-12-29T09:14:45;19.20;;;3.45;;
17494;SDS011;8864;51.970;4.614;2022-12-29T09:17:16;15.35;;;2.85;;
17494;SDS011;8864;51.970;4.614;2022-12-29T09:20:06;21.70;;;3.55;;
17494;SDS011;8864;51.970;4.614;2022-12-29T09:22:43;21.13;;;3.10;;
17494;SDS011;8864;51.970;4.614;2022-12-29T09:25:16;14.93;;;2.95;;
17494;SDS011;8864;51.970;4.614;2022-12-29T09:27:52;16.00;;;3.00;;
17494;SDS011;8864;51.970;4.614;2022-12-29T09:30:23;12.48;;;3.00;;
17494;SDS011;8864;51.970;4.614;2022-12-29T09:32:50;11.55;;;2.55;;
17494;SDS011;8864;51.970;4.614;2022-12-29T09:35:21;15.88;;;3.33;;
17494;SDS011;8864;51.970;4.614;2022-12-29T09:37:49;16.50;;;3.17;;
17494;SDS011;8864;51.970;4.614;2022-12-29T09:40:24;14.77;;;3.47;;
17494;SDS011;8864;51.970;4.614;2022-12-29T09:43:19;8.85;;;2.15;;
17494;SDS011;8864;51.970;4.614;2022-12-29T09:45:58;12.45;;;2.72;;
17494;SDS011;8864;51.970;4.614;2022-12-29T09:48:39;12.40;;;2.90;;
17494;SDS011;8864;51.970;4.614;2022-12-29T09:51:21;9.98;;;2.35;;
17494;SDS011;8864;51.970;4.614;2022-12-29T09:53:52;13.60;;;2.22;;
17494;SDS011;8864;51.970;4.614;2022-12-29T09:56:24;7.55;;;2.17;;
17494;SDS011;8864;51.970;4.614;2022-12-29T09:58:54;8.60;;;2.00;;
17494;SDS011;8864;51.970;4.614;2022-12-29T10:01:28;4.88;;;1.83;;
17494;SDS011;8864;51.970;4.614;2022-12-29T10:04:00;10.05;;;2.42;;
17494;SDS011;8864;51.970;4.614;2022-12-29T10:06:37;9.05;;;2.25;;
17494;SDS011;8864;51.970;4.614;2022-12-29T10:09:17;8.10;;;2.25;;
17494;SDS011;8864;51.970;4.614;2022-12-29T10:11:53;15.00;;;2.22;;
17494;SDS011;8864;51.970;4.614;2022-12-29T10:14:38;7.97;;;1.85;;
17494;SDS011;8864;51.970;4.614;2022-12-29T10:17:27;8.75;;;2.22;;
17494;SDS011;8864;51.970;4.614;2022-12-29T10:20:37;8.95;;;2.00;;
17494;SDS011;8864;51.970;4.614;2022-12-29T10:23:17;7.93;;;2.10;;
17494;SDS011;8864;51.970;4.614;2022-12-29T10:26:07;7.78;;;2.03;;
17494;SDS011;8864;51.970;4.614;2022-12-29T10:28:40;6.47;;;2.28;;
17494;SDS011;8864;51.970;4.614;2022-12-29T10:31:13;8.85;;;2.08;;
17494;SDS011;8864;51.970;4.614;2022-12-29T10:33:49;4.78;;;1.60;;
17494;SDS011;8864;51.970;4.614;2022-12-29T10:36:25;9.38;;;1.98;;
17494;SDS011;8864;51.970;4.614;2022-12-29T10:39:02;6.50;;;1.90;;
17494;SDS011;8864;51.970;4.614;2022-12-29T10:41:37;8.50;;;1.80;;
17494;SDS011;8864;51.970;4.614;2022-12-29T10:44:17;7.70;;;1.75;;
17494;SDS011;8864;51.970;4.614;2022-12-29T10:46:47;6.55;;;1.73;;
17494;SDS011;8864;51.970;4.614;2022-12-29T10:49:28;6.60;;;1.48;;
17494;SDS011;8864;51.970;4.614;2022-12-29T10:52:02;5.70;;;1.55;;
17494;SDS011;8864;51.970;4.614;2022-12-29T10:54:37;10.80;;;1.90;;
17494;SDS011;8864;51.970;4.614;2022-12-29T10:57:22;5.50;;;1.48;;
17494;SDS011;8864;51.970;4.614;2022-12-29T10:59:53;6.20;;;1.50;;
17494;SDS011;8864;51.970;4.614;2022-12-29T11:02:29;9.13;;;1.85;;
17494;SDS011;8864;51.970;4.614;2022-12-29T11:05:28;4.97;;;1.75;;
17494;SDS011;8864;51.970;4.614;2022-12-29T11:08:03;7.90;;;1.88;;
17494;SDS011;8864;51.970;4.614;2022-12-29T11:10:39;7.18;;;1.50;;
17494;SDS011;8864;51.970;4.614;2022-12-29T11:13:15;6.50;;;1.65;;
17494;SDS011;8864;51.970;4.614;2022-12-29T11:15:46;6.47;;;1.80;;
17494;SDS011;8864;51.970;4.614;2022-12-29T11:18:20;5.20;;;1.60;;
17494;SDS011;8864;51.970;4.614;2022-12-29T11:20:55;6.65;;;1.50;;
17494;SDS011;8864;51.970;4.614;2022-12-29T11:23:38;5.43;;;1.65;;
17494;SDS011;8864;51.970;4.614;2022-12-29T11:26:17;3.58;;;1.25;;
17494;SDS011;8864;51.970;4.614;2022-12-29T11:31:48;5.95;;;1.60;;
17494;SDS011;8864;51.970;4.614;2022-12-29T11:34:24;3.88;;;1.45;;
17494;SDS011;8864;51.970;4.614;2022-12-29T11:37:04;8.02;;;1.70;;
17494;SDS011;8864;51.970;4.614;2022-12-29T11:39:39;4.32;;;1.48;;
17494;SDS011;8864;51.970;4.614;2022-12-29T11:42:15;7.05;;;1.45;;
17494;SDS011;8864;51.970;4.614;2022-12-29T11:44:48;7.38;;;1.70;;
17494;SDS011;8864;51.970;4.614;2022-12-29T11:47:21;7.85;;;1.45;;
17494;SDS011;8864;51.970;4.614;2022-12-29T11:49:53;3.75;;;1.20;;
17494;SDS011;8864;51.970;4.614;2022-12-29T11:52:24;7.63;;;1.88;;
17494;SDS011;8864;51.970;4.614;2022-12-29T11:54:58;5.20;;;1.50;;
17494;SDS011;8864;51.970;4.614;2022-12-29T11:57:35;3.88;;;1.40;;
17494;SDS011;8864;51.970;4.614;2022-12-29T12:00:13;6.22;;;1.30;;
17494;SDS011;8864;51.970;4.614;2022-12-29T12:02:44;7.07;;;1.85;;
17494;SDS011;8864;51.970;4.614;2022-12-29T12:05:20;6.22;;;1.60;;
17494;SDS011;8864;51.970;4.614;2022-12-29T12:07:58;5.40;;;1.45;;
17494;SDS011;8864;51.970;4.614;2022-12-29T12:10:33;5.55;;;1.52;;
17494;SDS011;8864;51.970;4.614;2022-12-29T12:13:18;6.45;;;1.40;;
17494;SDS011;8864;51.970;4.614;2022-12-29T12:15:54;5.97;;;1.40;;
17494;SDS011;8864;51.970;4.614;2022-12-29T12:18:32;6.70;;;1.73;;
17494;SDS011;8864;51.970;4.614;2022-12-29T12:21:09;5.93;;;1.52;;
17494;SDS011;8864;51.970;4.614;2022-12-29T12:23:58;5.03;;;1.38;;
17494;SDS011;8864;51.970;4.614;2022-12-29T12:26:39;5.90;;;1.23;;
17494;SDS011;8864;51.970;4.614;2022-12-29T12:29:19;5.53;;;1.60;;
17494;SDS011;8864;51.970;4.614;2022-12-29T12:31:53;4.25;;;1.48;;
17494;SDS011;8864;51.970;4.614;2022-12-29T12:34:25;4.15;;;1.30;;
17494;SDS011;8864;51.970;4.614;2022-12-29T12:37:02;3.25;;;1.23;;
17494;SDS011;8864;51.970;4.614;2022-12-29T12:39:49;5.10;;;1.35;;
17494;SDS011;8864;51.970;4.614;2022-12-29T12:42:39;6.00;;;1.38;;
17494;SDS011;8864;51.970;4.614;2022-12-29T12:45:24;5.63;;;1.20;;
17494;SDS011;8864;51.970;4.614;2022-12-29T12:48:15;5.57;;;1.40;;
17494;SDS011;8864;51.970;4.614;2022-12-29T12:50:55;4.63;;;1.42;;
17494;SDS011;8864;51.970;4.614;2022-12-29T12:53:55;5.47;;;1.40;;
17494;SDS011;8864;51.970;4.614;2022-12-29T12:56:40;4.20;;;1.20;;
17494;SDS011;8864;51.970;4.614;2022-12-29T12:59:21;5.93;;;1.05;;
17494;SDS011;8864;51.970;4.614;2022-12-29T13:02:08;4.28;;;1.35;;
17494;SDS011;8864;51.970;4.614;2022-12-29T13:04:56;3.33;;;1.10;;
17494;SDS011;8864;51.970;4.614;2022-12-29T13:07:46;5.30;;;1.20;;
17494;SDS011;8864;51.970;4.614;2022-12-29T13:10:30;3.53;;;1.30;;
17494;SDS011;8864;51.970;4.614;2022-12-29T13:13:17;4.03;;;1.00;;
17494;SDS011;8864;51.970;4.614;2022-12-29T13:16:10;4.47;;;1.33;;
17494;SDS011;8864;51.970;4.614;2022-12-29T13:18:55;4.55;;;1.40;;
17494;SDS011;8864;51.970;4.614;2022-12-29T13:21:31;2.20;;;0.98;;
17494;SDS011;8864;51.970;4.614;2022-12-29T13:24:10;4.35;;;1.10;;
17494;SDS011;8864;51.970;4.614;2022-12-29T13:26:44;3.78;;;1.15;;
17494;SDS011;8864;51.970;4.614;2022-12-29T13:29:17;5.40;;;1.20;;
17494;SDS011;8864;51.970;4.614;2022-12-29T13:31:51;2.55;;;1.00;;
17494;SDS011;8864;51.970;4.614;2022-12-29T13:34:35;3.22;;;1.30;;
17494;SDS011;8864;51.970;4.614;2022-12-29T13:37:40;2.80;;;1.20;;
17494;SDS011;8864;51.970;4.614;2022-12-29T13:40:21;3.97;;;1.17;;
17494;SDS011;8864;51.970;4.614;2022-12-29T13:43:14;2.58;;;1.10;;
17494;SDS011;8864;51.970;4.614;2022-12-29T13:45:44;5.55;;;1.00;;
17494;SDS011;8864;51.970;4.614;2022-12-29T13:48:15;3.22;;;1.10;;
17494;SDS011;8864;51.970;4.614;2022-12-29T13:50:51;2.50;;;0.98;;
17494;SDS011;8864;51.970;4.614;2022-12-29T13:53:28;2.85;;;0.98;;
17494;SDS011;8864;51.970;4.614;2022-12-29T13:56:05;3.78;;;1.20;;
17494;SDS011;8864;51.970;4.614;2022-12-29T13:58:39;4.03;;;1.10;;
17494;SDS011;8864;51.970;4.614;2022-12-29T14:01:27;1.65;;;0.82;;
17494;SDS011;8864;51.970;4.614;2022-12-29T14:04:08;3.42;;;1.08;;
17494;SDS011;8864;51.970;4.614;2022-12-29T14:06:47;2.10;;;1.15;;
17494;SDS011;8864;51.970;4.614;2022-12-29T14:09:47;4.22;;;1.30;;
17494;SDS011;8864;51.970;4.614;2022-12-29T14:12:19;4.13;;;1.20;;
17494;SDS011;8864;51.970;4.614;2022-12-29T14:15:02;4.60;;;1.30;;
17494;SDS011;8864;51.970;4.614;2022-12-29T14:17:35;3.10;;;0.95;;
17494;SDS011;8864;51.970;4.614;2022-12-29T14:20:16;3.45;;;0.90;;
17494;SDS011;8864;51.970;4.614;2022-12-29T14:23:15;3.70;;;1.00;;
17494;SDS011;8864;51.970;4.614;2022-12-29T14:25:55;2.85;;;1.17;;
17494;SDS011;8864;51.970;4.614;2022-12-29T14:28:26;2.30;;;1.00;;
17494;SDS011;8864;51.970;4.614;2022-12-29T14:30:55;4.00;;;0.90;;
17494;SDS011;8864;51.970;4.614;2022-12-29T14:33:24;4.63;;;0.98;;
17494;SDS011;8864;51.970;4.614;2022-12-29T14:35:56;2.70;;;1.02;;
17494;SDS011;8864;51.970;4.614;2022-12-29T14:38:46;3.97;;;0.90;;
17494;SDS011;8864;51.970;4.614;2022-12-29T14:41:29;2.72;;;1.00;;
17494;SDS011;8864;51.970;4.614;2022-12-29T14:44:10;2.40;;;0.90;;
17494;SDS011;8864;51.970;4.614;2022-12-29T14:46:44;2.83;;;0.93;;
17494;SDS011;8864;51.970;4.614;2022-12-29T14:49:22;3.70;;;1.00;;
17494;SDS011;8864;51.970;4.614;2022-12-29T14:51:51;2.53;;;1.10;;
17494;SDS011;8864;51.970;4.614;2022-12-29T14:54:46;3.00;;;0.82;;
17494;SDS011;8864;51.970;4.614;2022-12-29T14:57:24;1.88;;;0.68;;
17494;SDS011;8864;51.970;4.614;2022-12-29T14:59:55;2.45;;;0.90;;
17494;SDS011;8864;51.970;4.614;2022-12-29T15:02:32;2.75;;;0.90;;
17494;SDS011;8864;51.970;4.614;2022-12-29T15:05:19;2.97;;;0.80;;
17494;SDS011;8864;51.970;4.614;2022-12-29T15:07:58;2.47;;;0.90;;
17494;SDS011;8864;51.970;4.614;2022-12-29T15:10:33;3.50;;;0.90;;
17494;SDS011;8864;51.970;4.614;2022-12-29T15:13:12;2.95;;;0.85;;
17494;SDS011;8864;51.970;4.614;2022-12-29T15:15:50;2.22;;;0.80;;
17494;SDS011;8864;51.970;4.614;2022-12-29T15:18:22;1.63;;;0.82;;
17494;SDS011;8864;51.970;4.614;2022-12-29T15:20:56;2.33;;;1.08;;
17494;SDS011;8864;51.970;4.614;2022-12-29T15:23:36;2.72;;;0.70;;
17494;SDS011;8864;51.970;4.614;2022-12-29T15:26:05;2.45;;;0.90;;
17494;SDS011;8864;51.970;4.614;2022-12-29T15:28:39;1.90;;;0.70;;
17494;SDS011;8864;51.970;4.614;2022-12-29T15:31:10;1.98;;;0.73;;
17494;SDS011;8864;51.970;4.614;2022-12-29T15:33:41;1.15;;;0.70;;
17494;SDS011;8864;51.970;4.614;2022-12-29T15:36:10;1.80;;;0.77;;
17494;SDS011;8864;51.970;4.614;2022-12-29T15:38:45;1.92;;;0.75;;
17494;SDS011;8864;51.970;4.614;2022-12-29T15:41:24;3.28;;;1.00;;
17494;SDS011;8864;51.970;4.614;2022-12-29T15:44:28;3.03;;;0.80;;
17494;SDS011;8864;51.970;4.614;2022-12-29T15:47:01;2.60;;;0.80;;
17494;SDS011;8864;51.970;4.614;2022-12-29T15:49:30;2.60;;;0.60;;
17494;SDS011;8864;51.970;4.614;2022-12-29T15:51:58;3.17;;;0.70;;
17494;SDS011;8864;51.970;4.614;2022-12-29T15:54:28;3.13;;;0.90;;
17494;SDS011;8864;51.970;4.614;2022-12-29T15:56:59;2.80;;;0.90;;
17494;SDS011;8864;51.970;4.614;2022-12-29T15:59:29;2.83;;;1.08;;
17494;SDS011;8864;51.970;4.614;2022-12-29T16:01:58;1.75;;;0.75;;